createdAt,value
2023-02-04T00:00:24.951Z,0.00
2023-02-04T00:01:24.957Z,0.00
2023-02-04T00:02:24.959Z,0.00
2023-02-04T00:03:24.913Z,0.00
2023-02-04T00:04:24.920Z,0.00
2023-02-04T00:05:24.965Z,0.00
2023-02-04T00:06:24.874Z,0.00
2023-02-04T00:07:24.872Z,0.00
2023-02-04T00:08:24.849Z,0.00
2023-02-04T00:09:31.949Z,0.00
2023-02-04T00:10:24.832Z,0.00
2023-02-04T00:11:24.855Z,0.00
2023-02-04T00:12:24.812Z,0.00
2023-02-04T00:13:24.814Z,0.00
2023-02-04T00:14:24.793Z,0.00
2023-02-04T00:15:24.771Z,0.00
2023-02-04T00:16:24.857Z,0.00
2023-02-04T00:17:24.774Z,0.00
2023-02-04T00:18:24.742Z,0.00
2023-02-04T00:19:24.756Z,0.00
2023-02-04T00:20:24.726Z,0.00
2023-02-04T00:21:24.702Z,0.00
2023-02-04T00:22:24.702Z,0.00
2023-02-04T00:23:24.679Z,0.00
2023-02-04T00:24:24.696Z,0.00
2023-02-04T00:25:24.669Z,0.00
2023-02-04T00:26:24.644Z,0.00
2023-02-04T00:27:24.636Z,0.00
2023-02-04T00:28:24.622Z,0.00
2023-02-04T00:29:24.622Z,0.00
2023-02-04T00:30:24.611Z,0.00
2023-02-04T00:31:24.683Z,0.00
2023-02-04T00:32:24.622Z,0.00
2023-02-04T00:33:24.591Z,0.00
2023-02-04T00:34:24.553Z,0.00
2023-02-04T00:35:24.568Z,0.00
2023-02-04T00:36:24.564Z,0.00
2023-02-04T00:37:24.522Z,0.00
2023-02-04T00:38:24.517Z,0.00
2023-02-04T00:39:24.498Z,0.00
2023-02-04T00:40:24.494Z,0.00
2023-02-04T00:41:24.476Z,0.00
2023-02-04T00:42:24.491Z,0.00
2023-02-04T00:43:24.463Z,0.00
2023-02-04T00:44:24.445Z,0.00
2023-02-04T00:45:24.498Z,0.00
2023-02-04T00:46:24.425Z,0.00
2023-02-04T00:47:24.406Z,0.00
2023-02-04T00:48:26.658Z,0.00
2023-02-04T00:49:24.407Z,0.00
2023-02-04T00:50:24.382Z,0.00
2023-02-04T00:51:24.368Z,0.00
2023-02-04T00:52:24.357Z,0.00
2023-02-04T00:53:24.346Z,0.00
2023-02-04T00:54:24.332Z,0.00
2023-02-04T00:55:24.316Z,0.00
2023-02-04T00:56:24.321Z,0.00
2023-02-04T00:57:24.294Z,0.00
2023-02-04T00:58:24.294Z,0.00
2023-02-04T00:59:24.282Z,0.00
2023-02-04T01:00:24.263Z,0.00
2023-02-04T01:01:24.323Z,0.00
2023-02-04T01:02:24.243Z,0.00
2023-02-04T01:03:24.232Z,0.00
2023-02-04T01:04:24.229Z,0.00
2023-02-04T01:05:24.238Z,0.00
2023-02-04T01:06:24.197Z,0.00
2023-02-04T01:07:24.220Z,0.00
2023-02-04T01:08:24.175Z,0.00
2023-02-04T01:09:24.163Z,0.00
2023-02-04T01:10:24.152Z,0.00
2023-02-04T01:11:24.144Z,0.00
2023-02-04T01:12:24.142Z,0.00
2023-02-04T01:13:24.117Z,0.00
2023-02-04T01:14:24.108Z,0.00
2023-02-04T01:15:24.107Z,0.00
2023-02-04T01:16:24.120Z,0.00
2023-02-04T01:17:24.091Z,0.00
2023-02-04T01:18:24.061Z,0.00
2023-02-04T01:19:24.046Z,0.00
2023-02-04T01:20:24.043Z,0.00
2023-02-04T01:21:24.052Z,0.00
2023-02-04T01:22:24.020Z,0.00
2023-02-04T01:23:24.012Z,0.00
2023-02-04T01:24:23.993Z,0.00
2023-02-04T01:25:23.983Z,0.00
2023-02-04T01:26:23.975Z,0.00
2023-02-04T01:27:23.991Z,0.00
2023-02-04T01:28:23.960Z,0.00
2023-02-04T01:29:23.940Z,0.00
2023-02-04T01:30:23.927Z,0.00
2023-02-04T01:31:23.942Z,0.00
2023-02-04T01:32:23.904Z,0.00
2023-02-04T01:33:23.923Z,0.00
2023-02-04T01:34:23.882Z,0.00
2023-02-04T01:35:23.868Z,0.00
2023-02-04T01:36:23.861Z,0.00
2023-02-04T01:37:23.887Z,0.00
2023-02-04T01:38:23.835Z,0.00
2023-02-04T01:39:23.828Z,0.00
2023-02-04T01:40:23.812Z,0.00
2023-02-04T01:41:23.797Z,0.00
2023-02-04T01:42:23.794Z,0.00
2023-02-04T01:43:23.784Z,0.00
2023-02-04T01:44:23.765Z,0.00
2023-02-04T01:45:23.749Z,0.00
2023-02-04T01:46:23.743Z,0.00
2023-02-04T01:47:23.763Z,0.00
2023-02-04T01:48:23.734Z,0.00
2023-02-04T01:49:23.715Z,0.00
2023-02-04T01:50:23.701Z,0.00
2023-02-04T01:51:23.683Z,0.00
2023-02-04T01:52:23.679Z,0.00
2023-02-04T01:53:23.679Z,0.00
2023-02-04T01:54:23.654Z,0.00
2023-02-04T01:55:23.662Z,0.00
2023-02-04T01:56:23.638Z,0.00
2023-02-04T01:57:23.617Z,0.00
2023-02-04T01:58:23.604Z,0.00
2023-02-04T01:59:23.602Z,0.00
2023-02-04T02:00:23.589Z,0.00
2023-02-04T02:01:23.601Z,0.00
2023-02-04T02:02:23.679Z,0.00
2023-02-04T02:03:23.548Z,0.00
2023-02-04T02:04:23.541Z,0.00
2023-02-04T02:05:23.523Z,0.00
2023-02-04T02:06:23.519Z,0.00
2023-02-04T02:07:23.523Z,0.00
2023-02-04T02:08:23.494Z,0.00
2023-02-04T02:09:23.500Z,0.00
2023-02-04T02:10:23.469Z,0.00
2023-02-04T02:11:23.467Z,0.00
2023-02-04T02:12:23.469Z,0.00
2023-02-04T02:13:23.439Z,0.00
2023-02-04T02:14:23.424Z,0.00
2023-02-04T02:15:23.416Z,0.00
2023-02-04T02:16:23.430Z,0.00
2023-02-04T02:17:23.386Z,0.00
2023-02-04T02:18:23.408Z,0.00
2023-02-04T02:19:23.372Z,0.00
2023-02-04T02:20:23.364Z,0.00
2023-02-04T02:21:23.340Z,0.00
2023-02-04T02:22:23.353Z,0.00
2023-02-04T02:23:23.322Z,0.00
2023-02-04T02:24:23.319Z,0.00
2023-02-04T02:25:23.317Z,0.00
2023-02-04T02:26:23.289Z,0.00
2023-02-04T02:27:23.283Z,0.00
2023-02-04T02:28:23.277Z,0.00
2023-02-04T02:29:23.269Z,0.00
2023-02-04T02:30:23.250Z,0.00
2023-02-04T02:31:23.404Z,0.00
2023-02-04T02:32:23.239Z,0.00
2023-02-04T02:33:23.231Z,0.00
2023-02-04T02:34:23.205Z,0.00
2023-02-04T02:35:23.191Z,0.00
2023-02-04T02:36:23.183Z,0.00
2023-02-04T02:37:23.160Z,0.00
2023-02-04T02:38:23.163Z,0.00
2023-02-04T02:39:23.156Z,0.00
2023-02-04T02:40:23.129Z,0.00
2023-02-04T02:41:23.140Z,0.00
2023-02-04T02:42:23.105Z,0.00
2023-02-04T02:43:23.088Z,0.00
2023-02-04T02:44:23.129Z,0.00
2023-02-04T02:45:23.088Z,0.00
2023-02-04T02:46:23.093Z,0.00
2023-02-04T02:47:23.042Z,0.00
2023-02-04T02:48:23.061Z,0.00
2023-02-04T02:49:23.021Z,0.00
2023-02-04T02:50:23.049Z,0.00
2023-02-04T02:51:23.006Z,0.00
2023-02-04T02:52:23.060Z,0.00
2023-02-04T02:53:22.972Z,0.00
2023-02-04T02:54:22.970Z,0.00
2023-02-04T02:55:22.951Z,0.00
2023-02-04T02:56:22.945Z,0.00
2023-02-04T02:57:22.947Z,0.00
2023-02-04T02:58:22.930Z,0.00
2023-02-04T02:59:22.924Z,0.00
2023-02-04T03:00:22.897Z,0.00
2023-02-04T03:01:22.917Z,0.00
2023-02-04T03:02:22.983Z,0.00
2023-02-04T03:03:22.866Z,0.00
2023-02-04T03:04:22.880Z,0.00
2023-02-04T03:05:22.842Z,0.00
2023-02-04T03:06:22.828Z,0.00
2023-02-04T03:07:22.829Z,0.00
2023-02-04T03:08:22.820Z,0.00
2023-02-04T03:09:22.790Z,0.00
2023-02-04T03:10:22.804Z,0.00
2023-02-04T03:11:22.767Z,0.00
2023-02-04T03:12:22.760Z,0.00
2023-02-04T03:13:22.769Z,0.00
2023-02-04T03:14:22.734Z,0.00
2023-02-04T03:15:22.724Z,0.00
2023-02-04T03:16:22.713Z,0.00
2023-02-04T03:17:22.696Z,0.00
2023-02-04T03:18:22.698Z,0.00
2023-02-04T03:19:22.692Z,0.00
2023-02-04T03:20:22.701Z,0.00
2023-02-04T03:21:22.656Z,0.00
2023-02-04T03:22:22.670Z,0.00
2023-02-04T03:23:22.634Z,0.00
2023-02-04T03:24:22.624Z,0.00
2023-02-04T03:25:22.610Z,0.00
2023-02-04T03:26:22.620Z,0.00
2023-02-04T03:27:22.587Z,0.00
2023-02-04T03:28:22.579Z,0.00
2023-02-04T03:29:22.589Z,0.00
2023-02-04T03:30:22.560Z,0.00
2023-02-04T03:31:22.676Z,0.00
2023-02-04T03:32:22.532Z,0.00
2023-02-04T03:33:22.523Z,0.00
2023-02-04T03:34:22.520Z,0.00
2023-02-04T03:35:22.505Z,0.00
2023-02-04T03:36:22.510Z,0.00
2023-02-04T03:37:22.484Z,0.00
2023-02-04T03:38:22.474Z,0.00
2023-02-04T03:39:22.455Z,0.00
2023-02-04T03:40:22.447Z,0.00
2023-02-04T03:41:22.430Z,0.00
2023-02-04T03:42:22.440Z,0.00
2023-02-04T03:43:22.425Z,0.00
2023-02-04T03:44:22.399Z,0.00
2023-02-04T03:45:22.416Z,0.00
2023-02-04T03:46:22.437Z,0.00
2023-02-04T03:47:22.374Z,0.00
2023-02-04T03:48:22.352Z,0.00
2023-02-04T03:49:22.346Z,0.00
2023-02-04T03:50:22.328Z,0.00
2023-02-04T03:51:22.323Z,0.00
2023-02-04T03:52:22.317Z,0.00
2023-02-04T03:53:22.293Z,0.00
2023-02-04T03:54:22.296Z,0.00
2023-02-04T03:55:22.359Z,0.00
2023-02-04T03:56:22.274Z,0.00
2023-02-04T03:57:22.258Z,0.00
2023-02-04T03:58:22.243Z,0.00
2023-02-04T03:59:22.225Z,0.00
2023-02-04T04:00:22.221Z,0.00
2023-02-04T04:01:22.259Z,0.00
2023-02-04T04:02:22.232Z,0.00
2023-02-04T04:03:22.188Z,0.00
2023-02-04T04:04:22.173Z,0.00
2023-02-04T04:05:22.159Z,0.00
2023-02-04T04:06:22.156Z,0.00
2023-02-04T04:07:22.138Z,0.00
2023-02-04T04:08:22.164Z,0.00
2023-02-04T04:09:22.120Z,0.00
2023-02-04T04:10:22.113Z,0.00
2023-02-04T04:11:22.092Z,0.00
2023-02-04T04:12:22.093Z,0.00
2023-02-04T04:13:22.073Z,0.00
2023-02-04T04:14:22.072Z,0.00
2023-02-04T04:15:22.051Z,0.00
2023-02-04T04:16:22.173Z,0.00
2023-02-04T04:17:22.075Z,0.00
2023-02-04T04:18:22.021Z,0.00
2023-02-04T04:19:22.002Z,0.00
2023-02-04T04:20:22.000Z,0.00
2023-02-04T04:21:21.992Z,0.00
2023-02-04T04:22:21.974Z,0.00
2023-02-04T04:23:21.988Z,0.00
2023-02-04T04:24:21.953Z,0.00
2023-02-04T04:25:21.935Z,0.00
2023-02-04T04:26:21.927Z,0.00
2023-02-04T04:27:21.925Z,0.00
2023-02-04T04:28:21.922Z,0.00
2023-02-04T04:29:21.889Z,0.00
2023-02-04T04:30:21.893Z,0.00
2023-02-04T04:31:21.995Z,0.00
2023-02-04T04:32:21.866Z,0.00
2023-02-04T04:33:21.868Z,0.00
2023-02-04T04:34:21.832Z,0.00
2023-02-04T04:35:21.822Z,0.00
2023-02-04T04:36:21.821Z,0.00
2023-02-04T04:37:21.806Z,0.00
2023-02-04T04:38:21.790Z,0.00
2023-02-04T04:39:21.771Z,0.00
2023-02-04T04:40:21.767Z,0.00
2023-02-04T04:41:21.748Z,0.00
2023-02-04T04:42:21.751Z,0.00
2023-02-04T04:43:21.725Z,0.00
2023-02-04T04:44:21.729Z,0.00
2023-02-04T04:45:21.701Z,0.00
2023-02-04T04:46:21.792Z,0.00
2023-02-04T04:47:21.685Z,0.00
2023-02-04T04:48:21.674Z,0.00
2023-02-04T04:49:21.681Z,0.00
2023-02-04T04:50:21.662Z,0.00
2023-02-04T04:51:21.632Z,0.00
2023-02-04T04:52:21.632Z,0.00
2023-02-04T04:53:21.611Z,0.00
2023-02-04T04:54:21.600Z,0.00
2023-02-04T04:55:21.612Z,0.00
2023-02-04T04:56:21.573Z,0.00
2023-02-04T04:57:21.575Z,0.00
2023-02-04T04:58:21.558Z,0.00
2023-02-04T04:59:21.571Z,0.00
2023-02-04T05:00:21.544Z,0.00
2023-02-04T05:01:21.575Z,0.00
2023-02-04T05:02:21.509Z,0.00
2023-02-04T05:03:21.512Z,0.00
2023-02-04T05:04:21.547Z,0.00
2023-02-04T05:05:21.512Z,0.00
2023-02-04T05:06:21.464Z,0.00
2023-02-04T05:07:21.459Z,0.00
2023-02-04T05:08:21.539Z,0.00
2023-02-04T05:09:21.443Z,0.00
2023-02-04T05:10:21.419Z,0.00
2023-02-04T05:11:21.416Z,0.00
2023-02-04T05:12:21.402Z,0.00
2023-02-04T05:13:21.406Z,0.00
2023-02-04T05:14:21.392Z,0.00
2023-02-04T05:15:21.368Z,0.00
2023-02-04T05:16:21.423Z,0.00
2023-02-04T05:17:21.345Z,0.00
2023-02-04T05:18:21.339Z,0.00
2023-02-04T05:19:21.334Z,0.00
2023-02-04T05:20:21.322Z,0.00
2023-02-04T05:21:21.320Z,0.00
2023-02-04T05:22:21.288Z,0.00
2023-02-04T05:23:21.280Z,0.00
2023-02-04T05:24:21.279Z,0.00
2023-02-04T05:25:21.274Z,0.00
2023-02-04T05:26:29.937Z,0.00
2023-02-04T05:27:22.238Z,0.00
2023-02-04T05:28:21.219Z,0.00
2023-02-04T05:29:21.220Z,0.00
2023-02-04T05:30:21.196Z,0.00
2023-02-04T05:31:21.293Z,0.00
2023-02-04T05:32:21.182Z,0.00
2023-02-04T05:33:21.193Z,0.00
2023-02-04T05:34:21.154Z,0.00
2023-02-04T05:35:21.150Z,0.00
2023-02-04T05:36:21.127Z,0.00
2023-02-04T05:37:21.145Z,0.00
2023-02-04T05:38:21.113Z,0.00
2023-02-04T05:39:21.095Z,0.00
2023-02-04T05:40:21.096Z,0.00
2023-02-04T05:41:21.086Z,0.00
2023-02-04T05:42:21.057Z,0.00
2023-02-04T05:43:21.077Z,0.00
2023-02-04T05:44:21.034Z,0.00
2023-02-04T05:45:21.026Z,0.00
2023-02-04T05:46:21.068Z,0.00
2023-02-04T05:47:21.007Z,0.00
2023-02-04T05:48:20.993Z,0.00
2023-02-04T05:49:20.991Z,0.00
2023-02-04T05:50:20.973Z,0.00
2023-02-04T05:51:20.958Z,0.00
2023-02-04T05:52:20.956Z,0.00
2023-02-04T05:53:20.954Z,0.00
2023-02-04T05:54:20.935Z,0.00
2023-02-04T05:55:20.916Z,0.00
2023-02-04T05:56:20.901Z,0.00
2023-02-04T05:57:20.904Z,0.00
2023-02-04T05:58:20.897Z,0.00
2023-02-04T05:59:20.870Z,0.00
2023-02-04T06:00:20.853Z,0.00
2023-02-04T06:01:20.860Z,0.00
2023-02-04T06:02:20.843Z,0.00
2023-02-04T06:03:20.858Z,0.00
2023-02-04T06:04:20.826Z,0.00
2023-02-04T06:05:20.817Z,0.00
2023-02-04T06:06:20.792Z,0.00
2023-02-04T06:07:20.786Z,0.00
2023-02-04T06:08:20.774Z,0.00
2023-02-04T06:09:20.774Z,0.00
2023-02-04T06:10:27.851Z,0.00
2023-02-04T06:11:20.727Z,0.00
2023-02-04T06:12:20.712Z,0.00
2023-02-04T06:13:20.719Z,0.00
2023-02-04T06:14:20.725Z,0.00
2023-02-04T06:15:20.696Z,0.00
2023-02-04T06:16:20.703Z,0.00
2023-02-04T06:17:20.689Z,0.00
2023-02-04T06:18:20.667Z,0.00
2023-02-04T06:19:20.646Z,0.00
2023-02-04T06:20:20.639Z,0.00
2023-02-04T06:21:20.625Z,0.00
2023-02-04T06:22:20.628Z,0.00
2023-02-04T06:23:20.598Z,0.00
2023-02-04T06:24:20.585Z,0.00
2023-02-04T06:25:20.594Z,0.00
2023-02-04T06:26:20.563Z,0.00
2023-02-04T06:27:20.585Z,0.00
2023-02-04T06:28:20.586Z,0.00
2023-02-04T06:29:20.526Z,0.00
2023-02-04T06:30:20.520Z,0.00
2023-02-04T06:31:20.619Z,0.00
2023-02-04T06:32:20.504Z,0.00
2023-02-04T06:33:20.489Z,0.00
2023-02-04T06:34:20.472Z,0.00
2023-02-04T06:35:20.459Z,0.00
2023-02-04T06:36:20.447Z,0.00
2023-02-04T06:37:20.463Z,0.00
2023-02-04T06:38:20.431Z,0.00
2023-02-04T06:39:20.427Z,0.00
2023-02-04T06:40:20.406Z,0.00
2023-02-04T06:41:20.433Z,0.00
2023-02-04T06:42:20.373Z,0.00
2023-02-04T06:43:20.382Z,0.00
2023-02-04T06:44:20.361Z,0.00
2023-02-04T06:45:20.344Z,4.00
2023-02-04T06:46:20.417Z,0.00
2023-02-04T06:47:20.332Z,0.00
2023-02-04T06:48:20.304Z,0.00
2023-02-04T06:49:20.361Z,0.00
2023-02-04T06:50:20.311Z,4.00
2023-02-04T06:51:20.286Z,0.00
2023-02-04T06:52:20.267Z,4.00
2023-02-04T06:53:20.249Z,4.00
2023-02-04T06:54:20.245Z,0.00
2023-02-04T06:55:20.242Z,4.00
2023-02-04T06:56:20.221Z,0.00
2023-02-04T06:57:20.233Z,4.00
2023-02-04T06:58:20.198Z,4.00
2023-02-04T06:59:20.186Z,4.00
2023-02-04T07:00:20.180Z,8.00
2023-02-04T07:01:20.186Z,4.00
2023-02-04T07:02:20.194Z,8.00
2023-02-04T07:03:20.147Z,8.00
2023-02-04T07:04:20.137Z,8.00
2023-02-04T07:05:20.122Z,12.00
2023-02-04T07:06:20.113Z,8.00
2023-02-04T07:07:20.096Z,12.00
2023-02-04T07:08:20.079Z,16.00
2023-02-04T07:09:20.072Z,12.00
2023-02-04T07:10:20.068Z,20.00
2023-02-04T07:11:20.066Z,16.00
2023-02-04T07:12:20.041Z,20.00
2023-02-04T07:13:20.049Z,20.00
2023-02-04T07:14:20.013Z,20.00
2023-02-04T07:15:20.014Z,24.00
2023-02-04T07:16:19.993Z,20.00
2023-02-04T07:17:19.997Z,24.00
2023-02-04T07:18:20.032Z,24.00
2023-02-04T07:19:21.223Z,28.00
2023-02-04T07:20:19.948Z,32.00
2023-02-04T07:21:19.945Z,36.00
2023-02-04T07:22:19.945Z,52.00
2023-02-04T07:23:19.935Z,44.00
2023-02-04T07:24:19.904Z,60.00
2023-02-04T07:25:19.890Z,56.00
2023-02-04T07:26:19.890Z,56.00
2023-02-04T07:27:19.868Z,80.00
2023-02-04T07:28:19.876Z,68.00
2023-02-04T07:29:25.119Z,100.00
2023-02-04T07:30:20.832Z,108.00
2023-02-04T07:31:19.970Z,116.00
2023-02-04T07:32:19.813Z,156.00
2023-02-04T07:33:19.816Z,128.00
2023-02-04T07:34:19.806Z,168.00
2023-02-04T07:35:19.782Z,152.00
2023-02-04T07:36:19.761Z,152.00
2023-02-04T07:37:19.768Z,160.00
2023-02-04T07:38:19.738Z,132.00
2023-02-04T07:39:19.740Z,160.00
2023-02-04T07:40:19.713Z,128.00
2023-02-04T07:41:19.706Z,144.00
2023-02-04T07:42:19.701Z,136.00
2023-02-04T07:43:19.690Z,124.00
2023-02-04T07:44:19.690Z,160.00
2023-02-04T07:45:19.683Z,120.00
2023-02-04T07:46:19.668Z,152.00
2023-02-04T07:47:19.632Z,124.00
2023-02-04T07:48:19.629Z,136.00
2023-02-04T07:49:19.609Z,148.00
2023-02-04T07:50:19.600Z,152.00
2023-02-04T07:51:19.585Z,192.00
2023-02-04T07:52:19.578Z,164.00
2023-02-04T07:53:19.572Z,216.00
2023-02-04T07:54:19.547Z,184.00
2023-02-04T07:55:19.552Z,216.00
2023-02-04T07:56:19.527Z,196.00
2023-02-04T07:57:20.483Z,200.00
2023-02-04T07:58:19.518Z,192.00
2023-02-04T07:59:19.499Z,176.00
2023-02-04T08:00:19.483Z,188.00
2023-02-04T08:01:19.562Z,168.00
2023-02-04T08:02:19.458Z,216.00
2023-02-04T08:03:19.451Z,180.00
2023-02-04T08:04:19.436Z,220.00
2023-02-04T08:05:19.421Z,188.00
2023-02-04T08:06:19.414Z,200.00
2023-02-04T08:07:19.406Z,188.00
2023-02-04T08:08:19.386Z,172.00
2023-02-04T08:09:19.377Z,168.00
2023-02-04T08:10:19.374Z,140.00
2023-02-04T08:11:19.363Z,168.00
2023-02-04T08:12:19.354Z,132.00
2023-02-04T08:13:19.339Z,164.00
2023-02-04T08:14:19.313Z,140.00
2023-02-04T08:15:19.316Z,152.00
2023-02-04T08:16:19.353Z,156.00
2023-02-04T08:17:19.302Z,164.00
2023-02-04T08:18:19.268Z,196.00
2023-02-04T08:19:19.286Z,192.00
2023-02-04T08:20:19.256Z,272.00
2023-02-04T08:21:19.634Z,260.00
2023-02-04T08:22:19.235Z,340.00
2023-02-04T08:23:19.227Z,372.00
2023-02-04T08:24:19.200Z,420.00
2023-02-04T08:25:19.190Z,512.00
2023-02-04T08:26:19.190Z,456.00
2023-02-04T08:27:19.174Z,500.00
2023-02-04T08:28:19.285Z,456.00
2023-02-04T08:29:19.141Z,500.00
2023-02-04T08:30:19.135Z,532.00
2023-02-04T08:31:19.263Z,452.00
2023-02-04T08:32:19.119Z,484.00
2023-02-04T08:33:19.120Z,428.00
2023-02-04T08:34:19.092Z,396.00
2023-02-04T08:35:19.080Z,424.00
2023-02-04T08:36:19.068Z,364.00
2023-02-04T08:37:19.054Z,368.00
2023-02-04T08:38:19.041Z,384.00
2023-02-04T08:39:19.038Z,324.00
2023-02-04T08:40:20.443Z,340.00
2023-02-04T08:41:19.006Z,380.00
2023-02-04T08:42:18.993Z,320.00
2023-02-04T08:43:18.997Z,344.00
2023-02-04T08:44:18.970Z,384.00
2023-02-04T08:45:18.972Z,384.00
2023-02-04T08:46:19.045Z,376.00
2023-02-04T08:47:18.950Z,436.00
2023-02-04T08:48:18.934Z,396.00
2023-02-04T08:49:18.946Z,428.00
2023-02-04T08:50:18.927Z,472.00
2023-02-04T08:51:18.917Z,432.00
2023-02-04T08:52:18.895Z,476.00
2023-02-04T08:53:18.897Z,568.00
2023-02-04T08:54:18.874Z,584.00
2023-02-04T08:55:18.876Z,668.00
2023-02-04T08:56:18.877Z,764.00
2023-02-04T08:57:18.856Z,708.00
2023-02-04T08:58:18.833Z,752.00
2023-02-04T08:59:18.827Z,820.00
2023-02-04T09:00:18.849Z,732.00
2023-02-04T09:01:18.921Z,852.00
2023-02-04T09:02:18.844Z,868.00
2023-02-04T09:03:18.782Z,720.00
2023-02-04T09:04:18.767Z,760.00
2023-02-04T09:05:18.797Z,752.00
2023-02-04T09:06:18.746Z,700.00
2023-02-04T09:07:18.752Z,740.00
2023-02-04T09:08:18.729Z,752.00
2023-02-04T09:09:20.051Z,708.00
2023-02-04T09:10:18.706Z,752.00
2023-02-04T09:11:18.706Z,680.00
2023-02-04T09:12:18.685Z,704.00
2023-02-04T09:13:18.676Z,752.00
2023-02-04T09:14:18.681Z,692.00
2023-02-04T09:15:18.648Z,684.00
2023-02-04T09:16:18.753Z,648.00
2023-02-04T09:17:18.624Z,600.00
2023-02-04T09:18:18.618Z,660.00
2023-02-04T09:19:18.622Z,628.00
2023-02-04T09:20:18.595Z,604.00
2023-02-04T09:21:18.606Z,648.00
2023-02-04T09:22:18.592Z,568.00
2023-02-04T09:23:18.559Z,584.00
2023-02-04T09:24:18.592Z,580.00
2023-02-04T09:25:18.556Z,460.00
2023-02-04T09:26:18.529Z,508.00
2023-02-04T09:27:18.516Z,520.00
2023-02-04T09:28:18.578Z,500.00
2023-02-04T09:29:18.511Z,592.00
2023-02-04T09:30:18.495Z,568.00
2023-02-04T09:31:18.590Z,576.00
2023-02-04T09:32:18.463Z,684.00
2023-02-04T09:33:18.446Z,660.00
2023-02-04T09:34:18.438Z,700.00
2023-02-04T09:35:18.434Z,792.00
2023-02-04T09:36:18.429Z,756.00
2023-02-04T09:37:18.434Z,784.00
2023-02-04T09:38:18.402Z,824.00
2023-02-04T09:39:18.382Z,736.00
2023-02-04T09:40:18.387Z,796.00
2023-02-04T09:41:18.387Z,816.00
2023-02-04T09:42:18.350Z,804.00
2023-02-04T09:43:18.359Z,880.00
2023-02-04T09:44:18.335Z,868.00
2023-02-04T09:45:18.354Z,840.00
2023-02-04T09:46:18.321Z,948.00
2023-02-04T09:47:18.323Z,900.00
2023-02-04T09:48:18.292Z,932.00
2023-02-04T09:49:18.303Z,1020.00
2023-02-04T09:50:18.264Z,1008.00
2023-02-04T09:51:18.254Z,1024.00
2023-02-04T09:52:18.339Z,1096.00
2023-02-04T09:53:18.248Z,1060.00
2023-02-04T09:54:18.220Z,1048.00
2023-02-04T09:55:18.207Z,1108.00
2023-02-04T09:56:18.192Z,1100.00
2023-02-04T09:57:18.276Z,1100.00
2023-02-04T09:58:18.173Z,1096.00
2023-02-04T09:59:18.153Z,1100.00
2023-02-04T10:00:18.138Z,1200.00
2023-02-04T10:01:18.172Z,1120.00
2023-02-04T10:02:18.114Z,1104.00
2023-02-04T10:03:18.151Z,1172.00
2023-02-04T10:04:18.083Z,1080.00
2023-02-04T10:05:18.066Z,1060.00
2023-02-04T10:06:18.061Z,1032.00
2023-02-04T10:07:18.077Z,824.00
2023-02-04T10:08:18.045Z,868.00
2023-02-04T10:09:18.054Z,784.00
2023-02-04T10:10:18.012Z,672.00
2023-02-04T10:11:17.997Z,736.00
2023-02-04T10:12:17.997Z,656.00
2023-02-04T10:13:17.991Z,600.00
2023-02-04T10:14:17.962Z,632.00
2023-02-04T10:15:17.950Z,552.00
2023-02-04T10:16:17.963Z,508.00
2023-02-04T10:17:17.935Z,540.00
2023-02-04T10:18:17.940Z,456.00
2023-02-04T10:19:17.904Z,540.00
2023-02-04T10:20:17.902Z,584.00
2023-02-04T10:21:17.890Z,492.00
2023-02-04T10:22:17.872Z,560.00
2023-02-04T10:23:17.861Z,516.00
2023-02-04T10:24:17.860Z,492.00
2023-02-04T10:25:17.869Z,556.00
2023-02-04T10:26:17.828Z,460.00
2023-02-04T10:27:17.837Z,516.00
2023-02-04T10:28:17.981Z,532.00
2023-02-04T10:29:17.790Z,484.00
2023-02-04T10:30:17.783Z,556.00
2023-02-04T10:31:17.907Z,548.00
2023-02-04T10:32:17.766Z,456.00
2023-02-04T10:33:17.756Z,536.00
2023-02-04T10:34:19.012Z,520.00
2023-02-04T10:35:17.724Z,496.00
2023-02-04T10:36:17.722Z,560.00
2023-02-04T10:37:17.702Z,548.00
2023-02-04T10:38:17.717Z,592.00
2023-02-04T10:39:17.682Z,620.00
2023-02-04T10:40:17.675Z,560.00
2023-02-04T10:41:17.702Z,616.00
2023-02-04T10:42:17.657Z,596.00
2023-02-04T10:43:17.638Z,580.00
2023-02-04T10:44:17.653Z,604.00
2023-02-04T10:45:17.610Z,560.00
2023-02-04T10:46:17.644Z,516.00
2023-02-04T10:47:17.596Z,592.00
2023-02-04T10:48:17.586Z,560.00
2023-02-04T10:49:17.566Z,576.00
2023-02-04T10:50:17.565Z,624.00
2023-02-04T10:51:17.557Z,548.00
2023-02-04T10:52:17.534Z,596.00
2023-02-04T10:53:17.533Z,628.00
2023-02-04T10:54:17.547Z,604.00
2023-02-04T10:55:17.500Z,688.00
2023-02-04T10:56:17.490Z,728.00
2023-02-04T10:57:17.506Z,652.00
2023-02-04T10:58:17.467Z,692.00
2023-02-04T10:59:17.453Z,628.00
2023-02-04T11:00:17.465Z,652.00
2023-02-04T11:01:17.506Z,652.00
2023-02-04T11:02:17.452Z,648.00
2023-02-04T11:03:17.460Z,704.00
2023-02-04T11:04:17.401Z,716.00
2023-02-04T11:05:17.400Z,608.00
2023-02-04T11:06:17.389Z,736.00
2023-02-04T11:07:17.375Z,704.00
2023-02-04T11:08:17.360Z,720.00
2023-02-04T11:09:17.340Z,812.00
2023-02-04T11:10:17.434Z,832.00
2023-02-04T11:11:17.326Z,808.00
2023-02-04T11:12:17.319Z,876.00
2023-02-04T11:13:17.327Z,744.00
2023-02-04T11:14:17.290Z,852.00
2023-02-04T11:15:17.276Z,832.00
2023-02-04T11:16:17.357Z,840.00
2023-02-04T11:17:17.251Z,916.00
2023-02-04T11:18:17.246Z,944.00
2023-02-04T11:19:17.241Z,892.00
2023-02-04T11:20:17.331Z,936.00
2023-02-04T11:21:19.215Z,888.00
2023-02-04T11:22:17.195Z,888.00
2023-02-04T11:23:17.181Z,796.00
2023-02-04T11:24:17.193Z,792.00
2023-02-04T11:25:17.171Z,832.00
2023-02-04T11:26:17.175Z,772.00
2023-02-04T11:27:17.136Z,760.00
2023-02-04T11:28:17.252Z,752.00
2023-02-04T11:29:17.141Z,708.00
2023-02-04T11:30:17.105Z,788.00
2023-02-04T11:31:17.210Z,804.00
2023-02-04T11:32:17.083Z,776.00
2023-02-04T11:33:17.068Z,844.00
2023-02-04T11:34:17.055Z,804.00
2023-02-04T11:35:17.049Z,840.00
2023-02-04T11:36:17.044Z,848.00
2023-02-04T11:37:17.042Z,872.00
2023-02-04T11:38:17.013Z,1040.00
2023-02-04T11:39:16.995Z,960.00
2023-02-04T11:40:16.993Z,1052.00
2023-02-04T11:41:16.984Z,1044.00
2023-02-04T11:42:16.985Z,904.00
2023-02-04T11:43:16.959Z,920.00
2023-02-04T11:44:16.949Z,816.00
2023-02-04T11:45:16.951Z,796.00
2023-02-04T11:46:17.019Z,824.00
2023-02-04T11:47:16.908Z,748.00
2023-02-04T11:48:16.896Z,816.00
2023-02-04T11:49:16.880Z,768.00
2023-02-04T11:50:16.877Z,728.00
2023-02-04T11:51:16.867Z,712.00
2023-02-04T11:52:16.868Z,640.00
2023-02-04T11:53:16.838Z,740.00
2023-02-04T11:54:16.826Z,696.00
2023-02-04T11:55:16.829Z,740.00
2023-02-04T11:56:16.811Z,828.00
2023-02-04T11:57:16.796Z,808.00
2023-02-04T11:58:16.821Z,824.00
2023-02-04T11:59:16.767Z,800.00
2023-02-04T12:00:16.754Z,724.00
2023-02-04T12:01:16.766Z,780.00
2023-02-04T12:02:16.845Z,676.00
2023-02-04T12:03:16.723Z,700.00
2023-02-04T12:04:16.714Z,640.00
2023-02-04T12:05:16.714Z,516.00
2023-02-04T12:06:16.701Z,596.00
2023-02-04T12:07:16.677Z,560.00
2023-02-04T12:08:16.677Z,516.00
2023-02-04T12:09:16.654Z,564.00
2023-02-04T12:10:16.652Z,520.00
2023-02-04T12:11:16.643Z,528.00
2023-02-04T12:12:16.622Z,488.00
2023-02-04T12:13:16.624Z,484.00
2023-02-04T12:14:16.604Z,540.00
2023-02-04T12:15:16.587Z,576.00
2023-02-04T12:16:16.647Z,580.00
2023-02-04T12:17:16.589Z,728.00
2023-02-04T12:18:16.594Z,732.00
2023-02-04T12:19:16.539Z,820.00
2023-02-04T12:20:16.534Z,808.00
2023-02-04T12:21:16.520Z,752.00
2023-02-04T12:22:16.514Z,844.00
2023-02-04T12:23:16.519Z,800.00
2023-02-04T12:24:16.484Z,784.00
2023-02-04T12:25:16.476Z,852.00
2023-02-04T12:26:16.465Z,772.00
2023-02-04T12:27:16.456Z,824.00
2023-02-04T12:28:16.549Z,792.00
2023-02-04T12:29:16.432Z,768.00
2023-02-04T12:30:16.418Z,812.00
2023-02-04T12:31:16.481Z,696.00
2023-02-04T12:32:16.392Z,768.00
2023-02-04T12:33:16.401Z,700.00
2023-02-04T12:34:16.382Z,664.00
2023-02-04T12:35:16.353Z,712.00
2023-02-04T12:36:16.348Z,616.00
2023-02-04T12:37:16.332Z,620.00
2023-02-04T12:38:16.345Z,588.00
2023-02-04T12:39:16.315Z,548.00
2023-02-04T12:40:16.299Z,624.00
2023-02-04T12:41:16.288Z,548.00
2023-02-04T12:42:16.277Z,608.00
2023-02-04T12:43:16.269Z,600.00
2023-02-04T12:44:16.270Z,596.00
2023-02-04T12:45:16.281Z,656.00
2023-02-04T12:46:16.289Z,568.00
2023-02-04T12:47:16.219Z,592.00
2023-02-04T12:48:16.269Z,580.00
2023-02-04T12:49:16.235Z,544.00
2023-02-04T12:50:16.212Z,632.00
2023-02-04T12:51:16.168Z,568.00
2023-02-04T12:52:16.163Z,640.00
2023-02-04T12:53:16.146Z,624.00
2023-02-04T12:54:16.141Z,636.00
2023-02-04T12:55:16.154Z,692.00